createdAt,value
2019-04-16T00:01:30.952Z,8.90
2019-04-16T00:04:03.372Z,8.90
2019-04-16T00:06:39.463Z,8.03
2019-04-16T00:09:12.966Z,8.73
2019-04-16T00:11:46.107Z,8.73
2019-04-16T00:14:26.384Z,8.47
2019-04-16T00:16:54.066Z,8.90
2019-04-16T00:19:21.749Z,8.53
2019-04-16T00:22:17.787Z,8.70
2019-04-16T00:24:48.290Z,8.27
2019-04-16T00:27:15.923Z,8.23
2019-04-16T00:29:43.423Z,8.23
2019-04-16T00:32:26.638Z,8.30
2019-04-16T00:34:54.153Z,8.70
2019-04-16T00:37:21.711Z,9.10
2019-04-16T00:39:49.206Z,8.57
2019-04-16T00:42:16.612Z,7.90
2019-04-16T00:44:44.032Z,8.33
2019-04-16T00:47:11.483Z,8.70
2019-04-16T00:49:39.109Z,8.20
2019-04-16T00:52:07.349Z,9.30
2019-04-16T00:54:34.924Z,8.47
2019-04-16T00:57:02.435Z,7.77
2019-04-16T00:59:30.612Z,7.77
2019-04-16T01:01:58.204Z,9.10
2019-04-16T01:04:25.803Z,8.23
2019-04-16T01:06:53.503Z,7.90
2019-04-16T01:09:21.089Z,8.80
2019-04-16T01:11:49.651Z,9.00
2019-04-16T01:14:18.285Z,8.03
2019-04-16T01:16:46.889Z,8.07
2019-04-16T01:19:14.272Z,8.20
2019-04-16T01:21:47.795Z,7.90
2019-04-16T01:24:20.298Z,8.10
2019-04-16T01:26:47.627Z,9.00
2019-04-16T01:29:16.436Z,7.70
2019-04-16T01:32:03.491Z,8.33
2019-04-16T01:35:02.662Z,8.37
2019-04-16T01:37:49.743Z,8.07
2019-04-16T01:40:22.361Z,8.37
2019-04-16T01:42:54.405Z,8.00
2019-04-16T01:45:20.132Z,7.60
2019-04-16T01:47:47.577Z,7.87
2019-04-16T01:50:15.124Z,7.70
2019-04-16T01:52:43.030Z,8.37
2019-04-16T01:55:10.795Z,7.73
2019-04-16T01:57:38.676Z,8.70
2019-04-16T02:00:08.590Z,7.83
2019-04-16T02:02:36.286Z,7.83
2019-04-16T02:05:04.193Z,8.00
2019-04-16T02:07:31.927Z,8.03
2019-04-16T02:09:59.472Z,8.07
2019-04-16T02:12:26.847Z,8.00
2019-04-16T02:14:57.340Z,8.07
2019-04-16T02:17:26.986Z,8.07
2019-04-16T02:19:54.421Z,8.60
2019-04-16T02:22:22.115Z,8.10
2019-04-16T02:24:49.746Z,8.40
2019-04-16T02:27:18.300Z,7.93
2019-04-16T02:29:46.834Z,8.33
2019-04-16T02:32:14.267Z,8.13
2019-04-16T02:34:41.979Z,9.40
2019-04-16T02:37:12.512Z,9.23
2019-04-16T02:39:49.117Z,8.83
2019-04-16T02:42:09.466Z,8.70
2019-04-16T02:44:37.348Z,7.83
2019-04-16T02:47:07.235Z,8.43
2019-04-16T02:49:35.408Z,8.83
2019-04-16T02:52:25.375Z,8.33
2019-04-16T02:55:10.545Z,8.67
2019-04-16T02:58:01.134Z,8.80
2019-04-16T03:00:50.477Z,8.33
2019-04-16T03:03:24.890Z,8.87
2019-04-16T03:05:53.105Z,8.30
2019-04-16T03:08:23.669Z,9.13
2019-04-16T03:10:51.547Z,8.90
2019-04-16T03:13:23.017Z,8.37
2019-04-16T03:16:23.662Z,8.77
2019-04-16T03:18:55.697Z,8.53
2019-04-16T03:21:24.489Z,8.77
2019-04-16T03:23:53.433Z,9.13
2019-04-16T03:26:20.986Z,9.60
2019-04-16T03:28:55.635Z,8.70
2019-04-16T03:31:23.605Z,8.60
2019-04-16T03:33:51.553Z,9.13
2019-04-16T03:36:19.407Z,8.73
2019-04-16T03:38:46.916Z,8.70
2019-04-16T03:41:14.867Z,9.13
2019-04-16T03:43:42.248Z,8.83
2019-04-16T03:46:13.087Z,8.90
2019-04-16T03:48:39.964Z,9.23
2019-04-16T03:51:08.567Z,9.60
2019-04-16T03:53:36.201Z,9.10
2019-04-16T03:56:03.634Z,8.93
2019-04-16T03:58:35.503Z,9.23
2019-04-16T04:01:03.449Z,9.00
2019-04-16T04:03:30.921Z,9.40
2019-04-16T04:05:58.498Z,9.30
2019-04-16T04:08:25.868Z,9.23
2019-04-16T04:10:53.253Z,8.70
2019-04-16T04:13:20.959Z,8.70
2019-04-16T04:15:48.567Z,8.73
2019-04-16T04:18:16.263Z,8.87
2019-04-16T04:20:49.611Z,9.03
2019-04-16T04:23:14.915Z,9.37
2019-04-16T04:25:44.523Z,9.17
2019-04-16T04:28:12.272Z,9.10
2019-04-16T04:30:39.842Z,9.10
2019-04-16T04:33:08.907Z,8.63
2019-04-16T04:35:36.899Z,9.27
2019-04-16T04:38:05.003Z,8.67
2019-04-16T04:40:43.822Z,8.77
2019-04-16T04:43:02.115Z,9.33
2019-04-16T04:45:30.905Z,9.13
2019-04-16T04:47:59.433Z,9.10
2019-04-16T04:50:27.148Z,8.83
2019-04-16T04:52:55.383Z,8.57
2019-04-16T04:55:23.371Z,8.60
2019-04-16T04:57:57.362Z,8.30
2019-04-16T05:00:24.769Z,9.53
2019-04-16T05:02:54.349Z,8.90
2019-04-16T05:05:46.592Z,9.40
2019-04-16T05:08:14.048Z,9.00
2019-04-16T05:10:43.309Z,9.00
2019-04-16T05:13:13.868Z,8.60
2019-04-16T05:15:42.943Z,8.60
2019-04-16T05:18:10.958Z,9.80
2019-04-16T05:20:38.947Z,9.03
2019-04-16T05:23:06.568Z,8.47
2019-04-16T05:25:34.514Z,9.20
2019-04-16T05:28:02.944Z,9.43
2019-04-16T05:30:35.964Z,9.20
2019-04-16T05:33:06.329Z,9.57
2019-04-16T05:35:41.575Z,8.57
2019-04-16T05:38:09.919Z,9.27
2019-04-16T05:40:41.409Z,9.40
2019-04-16T05:43:08.874Z,8.97
2019-04-16T05:45:37.664Z,8.60
2019-04-16T05:48:05.445Z,8.77
2019-04-16T05:50:33.027Z,9.17
2019-04-16T05:53:00.791Z,8.87
2019-04-16T05:55:37.377Z,8.30
2019-04-16T05:58:13.314Z,8.70
2019-04-16T06:01:01.627Z,8.30
2019-04-16T06:03:31.375Z,8.33
2019-04-16T06:05:59.970Z,9.23
2019-04-16T06:08:27.924Z,8.53
2019-04-16T06:10:57.664Z,10.37
2019-04-16T06:13:49.197Z,8.27
2019-04-16T06:16:45.299Z,8.63
2019-04-16T06:19:31.179Z,9.13
2019-04-16T06:22:17.211Z,9.10
2019-04-16T06:25:11.030Z,8.43
2019-04-16T06:27:56.731Z,8.03
2019-04-16T06:30:42.692Z,8.20
2019-04-16T06:33:14.357Z,8.87
2019-04-16T06:36:00.060Z,8.40
2019-04-16T06:38:43.240Z,9.00
2019-04-16T06:41:48.640Z,8.70
2019-04-16T06:44:20.394Z,8.13
2019-04-16T06:46:56.234Z,6.80
2019-04-16T06:49:52.296Z,8.47
2019-04-16T06:52:39.477Z,9.17
2019-04-16T06:55:24.002Z,9.30
2019-04-16T06:58:08.809Z,8.60
2019-04-16T07:01:14.046Z,8.17
2019-04-16T07:04:01.199Z,8.80
2019-04-16T07:06:48.313Z,8.67
2019-04-16T07:09:49.329Z,8.30
2019-04-16T07:12:20.453Z,8.57
2019-04-16T07:14:49.095Z,8.43
2019-04-16T07:17:18.017Z,7.57
2019-04-16T07:19:47.411Z,9.03
2019-04-16T07:22:20.795Z,8.70
2019-04-16T07:24:44.599Z,8.50
2019-04-16T07:27:12.140Z,9.17
2019-04-16T07:29:46.859Z,8.33
2019-04-16T07:32:25.620Z,8.37
2019-04-16T07:35:12.659Z,8.57
2019-04-16T07:38:05.756Z,8.50
2019-04-16T07:40:53.178Z,8.97
2019-04-16T07:43:38.940Z,8.67
2019-04-16T07:46:25.943Z,8.80
2019-04-16T07:49:27.679Z,9.10
2019-04-16T07:52:20.537Z,9.93
2019-04-16T07:55:11.339Z,9.17
2019-04-16T07:57:38.832Z,9.40
2019-04-16T08:00:09.750Z,9.10
2019-04-16T08:02:37.430Z,9.60
2019-04-16T08:05:08.681Z,9.77
2019-04-16T08:07:34.810Z,9.00
2019-04-16T08:10:03.331Z,8.90
2019-04-16T08:12:31.136Z,9.13
2019-04-16T08:15:12.510Z,9.90
2019-04-16T08:17:30.209Z,9.70
2019-04-16T08:19:59.018Z,9.87
2019-04-16T08:22:26.712Z,8.77
2019-04-16T08:25:02.883Z,9.37
2019-04-16T08:27:28.735Z,9.33
2019-04-16T08:30:02.226Z,9.90
2019-04-16T08:32:26.097Z,9.57
2019-04-16T08:34:53.525Z,10.13
2019-04-16T08:37:21.177Z,9.23
2019-04-16T08:39:48.776Z,9.17
2019-04-16T08:42:17.437Z,9.70
2019-04-16T08:44:45.216Z,10.27
2019-04-16T08:47:12.972Z,9.60
2019-04-16T08:49:40.492Z,10.30
2019-04-16T08:52:10.178Z,10.20
2019-04-16T08:54:38.579Z,10.00
2019-04-16T08:57:06.787Z,9.83
2019-04-16T08:59:36.427Z,10.60
2019-04-16T09:02:06.018Z,10.33
2019-04-16T09:04:36.568Z,11.13
2019-04-16T09:07:12.782Z,10.37
2019-04-16T09:09:48.349Z,10.03
2019-04-16T09:12:15.929Z,10.13
2019-04-16T09:14:54.818Z,10.87
2019-04-16T09:17:31.245Z,10.57
2019-04-16T09:20:12.739Z,10.97
2019-04-16T09:22:48.777Z,10.67
2019-04-16T09:25:35.873Z,10.40
2019-04-16T09:28:26.402Z,10.80
2019-04-16T09:31:32.140Z,10.97
2019-04-16T09:34:16.385Z,10.50
2019-04-16T09:37:06.576Z,10.93
2019-04-16T09:40:16.620Z,10.03
2019-04-16T09:42:39.475Z,11.03
2019-04-16T09:45:08.674Z,12.07
2019-04-16T09:47:37.105Z,11.80
2019-04-16T09:50:09.640Z,11.93
2019-04-16T09:52:34.284Z,11.87
2019-04-16T09:55:03.284Z,11.90
2019-04-16T09:57:32.320Z,11.83
2019-04-16T10:00:01.768Z,11.97
2019-04-16T10:02:32.277Z,11.83
2019-04-16T10:04:59.558Z,11.70
2019-04-16T10:07:26.943Z,12.13
2019-04-16T10:09:55.256Z,12.80
2019-04-16T10:12:22.981Z,12.07
2019-04-16T10:14:50.641Z,12.47
2019-04-16T10:17:19.167Z,12.53
2019-04-16T10:19:47.985Z,12.30
2019-04-16T10:22:16.105Z,12.20
2019-04-16T10:25:19.446Z,12.33
2019-04-16T10:27:54.564Z,12.23
2019-04-16T10:30:30.196Z,11.97
2019-04-16T10:33:05.281Z,13.00
2019-04-16T10:35:35.076Z,12.73
2019-04-16T10:38:28.149Z,13.47
2019-04-16T10:41:02.053Z,13.00
2019-04-16T10:44:01.172Z,13.37
2019-04-16T10:46:36.251Z,13.57
2019-04-16T10:49:11.928Z,13.80
2019-04-16T10:52:04.956Z,13.43
2019-04-16T10:54:42.787Z,13.47
2019-04-16T10:57:38.400Z,13.03
2019-04-16T11:00:31.697Z,13.57
2019-04-16T11:03:34.834Z,13.33
2019-04-16T11:06:07.489Z,13.03
2019-04-16T11:08:35.000Z,14.40
2019-04-16T11:11:02.322Z,13.90
2019-04-16T11:13:36.097Z,14.63
2019-04-16T11:16:10.298Z,13.90
2019-04-16T11:18:44.051Z,14.40
2019-04-16T11:21:11.714Z,14.70
2019-04-16T11:23:39.336Z,13.63
2019-04-16T11:26:08.406Z,13.80
2019-04-16T11:28:54.090Z,13.50
2019-04-16T11:31:23.725Z,13.33
2019-04-16T11:33:51.327Z,13.10
2019-04-16T11:36:20.869Z,14.53
2019-04-16T11:38:48.023Z,15.43
2019-04-16T11:41:17.933Z,14.13
2019-04-16T11:43:45.876Z,13.30
2019-04-16T11:46:13.722Z,14.50
2019-04-16T11:48:41.743Z,13.77
2019-04-16T11:51:10.085Z,14.57
2019-04-16T11:53:37.716Z,14.20
2019-04-16T11:56:05.538Z,12.90
2019-04-16T11:58:41.795Z,13.30
2019-04-16T12:01:28.970Z,15.10
2019-04-16T12:04:11.274Z,14.03
2019-04-16T12:06:46.720Z,15.33
2019-04-16T12:09:36.656Z,15.40
2019-04-16T12:12:26.341Z,16.37
2019-04-16T12:15:16.078Z,15.27
2019-04-16T12:18:02.991Z,14.60
2019-04-16T12:21:02.061Z,14.77
2019-04-16T12:23:47.746Z,15.80
2019-04-16T12:26:34.113Z,16.17
2019-04-16T12:29:23.005Z,16.10
2019-04-16T12:32:15.096Z,15.30
2019-04-16T12:35:14.476Z,15.70
2019-04-16T12:38:00.482Z,16.07
2019-04-16T12:40:43.483Z,14.90
2019-04-16T12:43:24.073Z,16.50
2019-04-16T12:46:23.082Z,16.50
2019-04-16T12:49:07.828Z,16.10
2019-04-16T12:52:08.178Z,16.77
2019-04-16T12:54:58.320Z,17.30
2019-04-16T12:57:46.877Z,17.13
2019-04-16T13:00:31.623Z,16.70
2019-04-16T13:03:10.783Z,17.13
2019-04-16T13:05:53.891Z,16.43
2019-04-16T13:08:31.619Z,16.93
2019-04-16T13:11:17.097Z,17.27
2019-04-16T13:14:04.542Z,16.83
2019-04-16T13:17:00.741Z,17.07
2019-04-16T13:19:55.782Z,16.17
2019-04-16T13:22:27.327Z,14.83
2019-04-16T13:25:15.999Z,15.47
2019-04-16T13:27:47.899Z,16.07
2019-04-16T13:30:23.316Z,15.27
2019-04-16T13:32:50.689Z,15.63
2019-04-16T13:35:22.787Z,16.00
2019-04-16T13:37:50.733Z,16.07
2019-04-16T13:40:19.247Z,16.83
2019-04-16T13:42:49.783Z,16.13
2019-04-16T13:45:27.499Z,17.10
2019-04-16T13:47:56.237Z,17.07
2019-04-16T13:50:28.393Z,15.27
2019-04-16T13:53:07.059Z,15.00
2019-04-16T13:56:00.769Z,16.60
2019-04-16T13:58:40.037Z,15.83
2019-04-16T14:01:28.049Z,15.70
2019-04-16T14:03:57.103Z,15.13
2019-04-16T14:06:24.834Z,11.73
2019-04-16T14:08:52.321Z,15.60
2019-04-16T14:11:20.562Z,16.70
2019-04-16T14:13:50.278Z,16.00
2019-04-16T14:16:18.096Z,16.60
2019-04-16T14:18:49.148Z,16.43
2019-04-16T14:21:23.086Z,15.80
2019-04-16T14:23:57.859Z,15.97
2019-04-16T14:26:27.092Z,16.63
2019-04-16T14:29:16.935Z,17.97
2019-04-16T14:31:48.893Z,16.40
2019-04-16T14:34:22.293Z,16.03
2019-04-16T14:36:53.077Z,16.10
2019-04-16T14:39:40.800Z,16.43
2019-04-16T14:42:12.196Z,17.07
2019-04-16T14:45:07.975Z,15.97
2019-04-16T14:47:38.082Z,16.87
2019-04-16T14:50:05.094Z,17.53
2019-04-16T14:52:32.874Z,17.10
2019-04-16T14:55:09.602Z,17.37
2019-04-16T14:58:01.375Z,16.17
2019-04-16T15:01:12.696Z,16.83
2019-04-16T15:04:07.804Z,17.63
2019-04-16T15:07:05.368Z,16.70
2019-04-16T15:09:40.870Z,16.73
2019-04-16T15:12:46.094Z,18.80
2019-04-16T15:15:39.065Z,16.57
2019-04-16T15:18:11.181Z,16.57
2019-04-16T15:20:56.777Z,17.57
2019-04-16T15:23:54.787Z,17.70
2019-04-16T15:26:42.007Z,17.57
2019-04-16T15:29:24.706Z,17.23
2019-04-16T15:32:11.912Z,16.40
2019-04-16T15:34:44.682Z,16.97
2019-04-16T15:37:26.737Z,17.43
2019-04-16T15:39:59.604Z,17.33
2019-04-16T15:42:48.160Z,17.77
2019-04-16T15:45:42.017Z,18.00
2019-04-16T15:48:19.110Z,17.60
2019-04-16T15:51:13.928Z,16.43
2019-04-16T15:54:08.527Z,17.10
2019-04-16T15:56:43.768Z,17.93
2019-04-16T15:59:21.258Z,18.10
2019-04-16T16:05:16.769Z,18.20
2019-04-16T16:07:56.215Z,16.13
2019-04-16T16:10:28.133Z,17.63
2019-04-16T16:13:06.655Z,18.57
2019-04-16T16:15:41.185Z,17.27
2019-04-16T16:18:09.431Z,18.43
2019-04-16T16:20:43.679Z,17.80
2019-04-16T16:23:12.636Z,17.73
2019-04-16T16:25:41.465Z,17.77
2019-04-16T16:28:10.684Z,17.60
2019-04-16T16:30:40.962Z,17.50
2019-04-16T16:33:08.988Z,19.13
2019-04-16T16:35:37.585Z,18.13
2019-04-16T16:38:05.227Z,18.10
2019-04-16T16:40:35.056Z,17.50
2019-04-16T16:43:08.189Z,17.60
2019-04-16T16:45:48.279Z,17.70
2019-04-16T16:48:17.621Z,16.87
2019-04-16T16:50:51.471Z,17.33
2019-04-16T16:53:25.889Z,17.73
2019-04-16T16:55:57.485Z,16.97
2019-04-16T16:58:47.790Z,17.50
2019-04-16T17:01:37.953Z,18.03
2019-04-16T17:04:23.867Z,16.50
2019-04-16T17:06:52.371Z,17.60
2019-04-16T17:09:27.144Z,16.93
2019-04-16T17:11:56.854Z,17.17
2019-04-16T17:14:24.465Z,17.27
2019-04-16T17:17:12.232Z,17.40
2019-04-16T17:20:31.393Z,18.00
2019-04-16T17:23:38.315Z,17.77
2019-04-16T17:26:06.627Z,17.30
2019-04-16T17:28:36.517Z,16.67
2019-04-16T17:31:12.612Z,17.13
2019-04-16T17:33:47.432Z,16.93
2019-04-16T17:36:15.070Z,16.10
2019-04-16T17:38:42.737Z,17.33
2019-04-16T17:41:14.132Z,16.90
2019-04-16T17:44:10.014Z,16.67
2019-04-16T17:47:10.360Z,16.37
2019-04-16T17:49:46.082Z,16.13
2019-04-16T17:52:22.577Z,17.33
2019-04-16T17:55:16.446Z,15.67
2019-04-16T17:58:24.162Z,17.40
2019-04-16T18:01:28.494Z,16.23
2019-04-16T18:04:27.714Z,16.13
2019-04-16T18:07:15.376Z,17.87
2019-04-16T18:09:50.633Z,17.47
2019-04-16T18:12:37.688Z,17.13
2019-04-16T18:15:22.979Z,16.77
2019-04-16T18:18:01.447Z,16.27
2019-04-16T18:20:58.648Z,17.57
2019-04-16T18:23:30.490Z,18.53
2019-04-16T18:26:20.976Z,17.77
2019-04-16T18:29:01.847Z,15.57
2019-04-16T18:31:33.395Z,17.07
2019-04-16T18:34:11.405Z,16.60
2019-04-16T18:37:13.596Z,15.57
2019-04-16T18:40:06.263Z,16.90
2019-04-16T18:42:52.847Z,16.87
2019-04-16T18:45:39.073Z,16.70
2019-04-16T18:48:14.274Z,16.33
2019-04-16T18:50:43.000Z,16.03
2019-04-16T18:53:10.867Z,15.60
2019-04-16T18:55:48.922Z,17.13
2019-04-16T18:58:16.508Z,16.83
2019-04-16T19:00:46.356Z,16.97
2019-04-16T19:03:16.498Z,17.17
2019-04-16T19:05:44.270Z,17.50
2019-04-16T19:08:11.862Z,17.47
2019-04-16T19:10:40.532Z,17.53
2019-04-16T19:13:11.165Z,17.50
2019-04-16T19:15:37.499Z,17.27
2019-04-16T19:18:19.222Z,17.87
2019-04-16T19:20:35.558Z,17.00
2019-04-16T19:23:03.325Z,17.67
2019-04-16T19:25:33.755Z,17.53
2019-04-16T19:28:04.795Z,17.23
2019-04-16T19:30:50.750Z,17.77
2019-04-16T19:33:19.525Z,16.17
2019-04-16T19:35:51.050Z,17.40
2019-04-16T19:38:18.154Z,17.40
2019-04-16T19:40:47.707Z,17.00
2019-04-16T19:43:20.111Z,16.90
2019-04-16T19:45:47.461Z,17.83
2019-04-16T19:48:17.888Z,16.90
2019-04-16T19:50:53.378Z,17.77
2019-04-16T19:53:21.542Z,17.93
2019-04-16T19:55:50.242Z,18.00
2019-04-16T19:58:20.644Z,16.03
2019-04-16T20:00:48.076Z,16.33
2019-04-16T20:03:15.365Z,16.10
2019-04-16T20:05:42.897Z,18.13
2019-04-16T20:08:10.544Z,17.67
2019-04-16T20:10:38.299Z,16.60
2019-04-16T20:13:06.183Z,15.83
2019-04-16T20:15:33.947Z,18.20
2019-04-16T20:18:06.013Z,16.10
2019-04-16T20:20:37.964Z,16.87
2019-04-16T20:23:05.843Z,16.87
2019-04-16T20:25:33.769Z,16.90
2019-04-16T20:28:01.891Z,16.87
2019-04-16T20:30:29.532Z,17.13
2019-04-16T20:32:57.241Z,16.53
2019-04-16T20:35:24.893Z,16.83
2019-04-16T20:37:56.736Z,17.23
2019-04-16T20:40:24.116Z,18.07
2019-04-16T20:42:54.190Z,18.20
2019-04-16T20:45:26.227Z,17.30
2019-04-16T20:47:53.867Z,16.97
2019-04-16T20:50:23.274Z,17.10
2019-04-16T20:52:50.757Z,17.03
2019-04-16T20:55:18.226Z,17.47
2019-04-16T20:57:49.758Z,14.03
2019-04-16T21:00:25.517Z,18.40
2019-04-16T21:03:02.553Z,17.30
2019-04-16T21:05:29.383Z,15.70
2019-04-16T21:07:56.781Z,17.53
2019-04-16T21:10:24.637Z,15.43
2019-04-16T21:12:54.864Z,14.17
2019-04-16T21:15:27.402Z,14.13
2019-04-16T21:17:54.258Z,15.73
2019-04-16T21:20:23.075Z,15.37
2019-04-16T21:22:51.301Z,13.50
2019-04-16T21:25:18.979Z,16.03
2019-04-16T21:28:11.807Z,15.63
2019-04-16T21:30:42.893Z,16.97
2019-04-16T21:33:17.729Z,15.67
2019-04-16T21:35:49.593Z,16.63
2019-04-16T21:38:56.973Z,17.37
2019-04-16T21:41:28.547Z,16.87
2019-04-16T21:43:56.748Z,16.13
2019-04-16T21:46:24.220Z,16.70
2019-04-16T21:48:56.008Z,15.77
2019-04-16T21:51:30.431Z,16.47
2019-04-16T21:54:02.132Z,17.80
2019-04-16T21:56:29.932Z,17.57
2019-04-16T21:58:58.280Z,16.33
2019-04-16T22:01:40.219Z,13.60
2019-04-16T22:04:14.684Z,16.73
2019-04-16T22:06:43.643Z,15.80
2019-04-16T22:09:11.064Z,15.43
2019-04-16T22:11:43.260Z,15.43
2019-04-16T22:14:21.982Z,16.30
2019-04-16T22:16:46.523Z,13.33
2019-04-16T22:19:14.947Z,12.57
2019-04-16T22:21:43.822Z,16.00
2019-04-16T22:24:11.453Z,14.33
2019-04-16T22:26:39.814Z,12.17
2019-04-16T22:29:15.426Z,14.50
2019-04-16T22:31:40.730Z,13.67
2019-04-16T22:34:08.492Z,14.17
2019-04-16T22:36:36.085Z,13.27
2019-04-16T22:39:13.304Z,13.23
2019-04-16T22:41:47.204Z,12.47
2019-04-16T22:44:38.997Z,13.40
2019-04-16T22:47:12.549Z,12.03
2019-04-16T22:49:40.046Z,12.97
2019-04-16T22:52:07.605Z,13.93
2019-04-16T22:54:37.196Z,13.87
2019-04-16T22:57:09.481Z,12.33
2019-04-16T22:59:39.397Z,13.07
2019-04-16T23:02:17.897Z,11.37
2019-04-16T23:04:46.367Z,10.73
2019-04-16T23:07:14.249Z,12.60
2019-04-16T23:09:42.051Z,13.40
2019-04-16T23:12:09.481Z,12.30
2019-04-16T23:14:37.029Z,11.13
2019-04-16T23:17:04.475Z,11.97
2019-04-16T23:19:32.032Z,10.23
2019-04-16T23:21:59.397Z,11.43
2019-04-16T23:24:26.852Z,12.97
2019-04-16T23:27:04.801Z,11.93
2019-04-16T23:29:28.107Z,10.80
2019-04-16T23:31:56.271Z,10.57
2019-04-16T23:34:23.871Z,11.47
2019-04-16T23:36:52.539Z,11.87
2019-04-16T23:39:20.015Z,10.27
2019-04-16T23:41:48.211Z,12.80
2019-04-16T23:44:34.243Z,11.80
2019-04-16T23:47:26.894Z,11.67
2019-04-16T23:50:15.894Z,12.60
2019-04-16T23:52:49.983Z,12.70
2019-04-16T23:55:30.545Z,11.97
2019-04-16T23:58:05.756Z,12.33
